Time;durP1;ratioP1;P1;durP2;ratioP2;P2;SDS_P1;SDS_P2;PMS_P1;PMS_P2;Temp;Humidity;BMP_temperature;BMP_pressure;BME280_temperature;BME280_humidity;BME280_pressure;Samples;Min_cycle;Max_cycle;Signal;HPM_P1;HPM_P2
2023/06/14 00:01:38;;;;;;;13.65;7.13;;;12.10;99.90;;;;;;5088354;28;20032;-76
2023/06/14 00:04:04;;;;;;;12.73;7.45;;;12.10;99.90;;;;;;5075018;28;20035;-76
2023/06/14 00:06:30;;;;;;;12.35;7.10;;;12.00;99.90;;;;;;5086531;28;20024;-76
2023/06/14 00:08:56;;;;;;;13.98;7.15;;;12.00;99.90;;;;;;5087666;28;20043;-76
2023/06/14 00:11:21;;;;;;;11.90;6.88;;;12.10;99.90;;;;;;5089628;28;20035;-76
2023/06/14 00:13:47;;;;;;;12.15;7.53;;;12.10;99.90;;;;;;5080817;28;20038;-77
2023/06/14 00:16:13;;;;;;;13.38;7.07;;;12.20;99.90;;;;;;5100328;28;20028;-76
2023/06/14 00:18:38;;;;;;;9.43;6.15;;;12.20;99.90;;;;;;5089200;28;20028;-76
2023/06/14 00:21:05;;;;;;;14.75;8.10;;;12.10;99.90;;;;;;5088455;28;20027;-73
2023/06/14 00:23:30;;;;;;;12.38;7.53;;;12.10;99.90;;;;;;5089442;28;20037;-73
2023/06/14 00:25:56;;;;;;;12.65;7.30;;;12.00;99.90;;;;;;5076791;28;20057;-74
2023/06/14 00:28:22;;;;;;;13.40;7.20;;;12.00;99.90;;;;;;5081999;28;20099;-73
2023/06/14 00:30:48;;;;;;;14.20;8.07;;;11.80;99.90;;;;;;5088639;28;20383;-75
2023/06/14 00:33:13;;;;;;;13.20;7.15;;;11.80;99.90;;;;;;5088980;28;20479;-76
2023/06/14 00:35:39;;;;;;;12.40;7.40;;;11.80;99.90;;;;;;5088507;28;20500;-74
2023/06/14 00:38:05;;;;;;;11.65;7.32;;;11.90;99.90;;;;;;5107993;27;20043;-74
2023/06/14 00:40:31;;;;;;;12.55;7.10;;;12.00;99.90;;;;;;5068850;28;20029;-74
2023/06/14 00:42:56;;;;;;;12.82;7.60;;;12.00;99.90;;;;;;5067855;28;20116;-74
2023/06/14 00:45:22;;;;;;;12.05;7.53;;;12.00;99.90;;;;;;5096705;28;20036;-74
2023/06/14 00:47:52;;;;;;;12.75;8.10;;;11.90;99.90;;;;;;5108957;28;20094;-75
2023/06/14 00:50:20;;;;;;;12.52;7.28;;;11.70;99.90;;;;;;5105048;28;20524;-74
2023/06/14 00:52:46;;;;;;;14.60;7.18;;;11.70;99.90;;;;;;5101073;28;20075;-74
2023/06/14 00:55:11;;;;;;;13.60;7.65;;;11.80;99.90;;;;;;5082396;28;20071;-74
2023/06/14 00:57:38;;;;;;;13.10;7.68;;;11.80;99.90;;;;;;5067689;28;20078;-73
2023/06/14 01:00:08;;;;;;;17.50;7.57;;;11.70;99.90;;;;;;5067050;28;20479;-74
2023/06/14 01:02:36;;;;;;;12.32;7.78;;;11.60;99.90;;;;;;5068612;28;20032;-73
2023/06/14 01:05:02;;;;;;;12.55;7.72;;;11.50;99.90;;;;;;5085034;28;20148;-74
2023/06/14 01:07:28;;;;;;;12.13;7.57;;;11.50;99.90;;;;;;5088568;28;20024;-73
2023/06/14 01:10:27;;;;;;;11.35;6.50;;;11.70;99.90;;;;;;5084619;28;20036;-74
2023/06/14 01:13:10;;;;;;;11.88;6.90;;;11.70;99.90;;;;;;5074738;28;20043;-75
2023/06/14 01:15:37;;;;;;;16.38;7.63;;;11.50;99.90;;;;;;5085996;28;20028;-74
2023/06/14 01:18:05;;;;;;;14.63;7.45;;;11.40;99.90;;;;;;5067602;28;20029;-74
2023/06/14 01:20:37;;;;;;;11.73;7.40;;;11.40;99.90;;;;;;5068231;28;20037;-74
2023/06/14 01:23:03;;;;;;;14.73;7.65;;;11.40;99.90;;;;;;5071738;28;20028;-74
2023/06/14 01:25:29;;;;;;;12.63;6.65;;;11.50;99.90;;;;;;5078558;28;20055;-74
2023/06/14 01:28:00;;;;;;;13.55;7.80;;;11.30;99.90;;;;;;5070353;28;20033;-74
2023/06/14 01:30:26;;;;;;;12.20;7.72;;;11.20;99.90;;;;;;5068005;28;20119;-74
2023/06/14 01:32:54;;;;;;;13.20;7.80;;;11.10;99.90;;;;;;5099611;28;20032;-75
2023/06/14 01:35:20;;;;;;;11.65;7.68;;;11.10;99.90;;;;;;5098561;28;20039;-73
2023/06/14 01:37:48;;;;;;;12.82;7.22;;;11.10;99.90;;;;;;5088282;28;20165;-73
2023/06/14 01:40:15;;;;;;;15.15;7.47;;;10.90;99.90;;;;;;5085396;28;20039;-73
2023/06/14 01:42:42;;;;;;;16.30;8.30;;;10.70;99.90;;;;;;5086529;28;20028;-73
2023/06/14 01:45:09;;;;;;;16.38;8.10;;;10.60;99.90;;;;;;5067696;28;20036;-73
2023/06/14 01:47:36;;;;;;;14.85;8.48;;;10.70;99.90;;;;;;5070488;28;20052;-73
2023/06/14 01:50:02;;;;;;;14.90;8.50;;;10.80;99.90;;;;;;5087455;28;20027;-74
2023/06/14 01:52:28;;;;;;;15.00;8.18;;;10.80;99.90;;;;;;5087447;28;20043;-73
2023/06/14 01:54:54;;;;;;;17.48;8.05;;;10.90;99.90;;;;;;5086608;28;20473;-74
2023/06/14 01:57:21;;;;;;;15.80;8.38;;;10.90;99.90;;;;;;5122432;27;20081;-74
2023/06/14 01:59:48;;;;;;;12.68;7.82;;;10.90;99.90;;;;;;5091773;28;20020;-74
2023/06/14 02:02:15;;;;;;;14.38;7.95;;;10.80;99.90;;;;;;5087507;28;20048;-73
2023/06/14 02:04:41;;;;;;;13.85;7.65;;;10.70;99.90;;;;;;5089768;28;20160;-74
2023/06/14 02:07:07;;;;;;;17.48;7.88;;;10.70;99.90;;;;;;5087940;28;20626;-73
2023/06/14 02:09:33;;;;;;;13.52;8.13;;;10.60;99.90;;;;;;5094183;28;20020;-74
2023/06/14 02:11:59;;;;;;;14.50;7.80;;;10.60;99.90;;;;;;5090624;28;20101;-73
2023/06/14 02:14:26;;;;;;;15.18;7.85;;;10.60;99.90;;;;;;5082210;28;20044;-74
2023/06/14 02:16:52;;;;;;;17.40;8.52;;;10.60;99.90;;;;;;5071404;28;20394;-75
2023/06/14 02:19:19;;;;;;;16.13;8.05;;;10.60;99.90;;;;;;5071037;28;20074;-73
2023/06/14 02:21:45;;;;;;;14.07;8.65;;;10.60;99.90;;;;;;5071824;28;20430;-73
2023/06/14 02:24:11;;;;;;;14.38;8.43;;;10.50;99.90;;;;;;5084673;28;20108;-75
2023/06/14 02:26:41;;;;;;;14.30;8.10;;;10.50;99.90;;;;;;5072658;28;20033;-77
2023/06/14 02:29:09;;;;;;;12.82;7.55;;;10.50;99.90;;;;;;5079858;28;20134;-76
2023/06/14 02:31:35;;;;;;;14.10;8.02;;;10.50;99.90;;;;;;5078301;28;20078;-74
2023/06/14 02:34:01;;;;;;;15.30;8.15;;;10.40;99.90;;;;;;5069996;28;20082;-74
2023/06/14 02:36:29;;;;;;;15.05;8.57;;;10.30;99.90;;;;;;5092758;28;20471;-74
2023/06/14 02:38:57;;;;;;;15.50;8.80;;;10.30;99.90;;;;;;5109747;28;20032;-75
2023/06/14 02:41:23;;;;;;;17.35;8.23;;;10.20;99.90;;;;;;5089831;27;20078;-73
2023/06/14 02:43:49;;;;;;;15.82;8.07;;;10.10;99.90;;;;;;5070990;28;20032;-73
2023/06/14 02:46:14;;;;;;;15.23;8.63;;;10.00;99.90;;;;;;5101728;27;20368;-73
2023/06/14 02:48:40;;;;;;;13.93;8.15;;;10.00;99.90;;;;;;5070881;28;20052;-73
2023/06/14 02:51:08;;;;;;;18.80;9.10;;;9.90;99.90;;;;;;5069954;28;20848;-73
2023/06/14 02:53:34;;;;;;;16.83;8.88;;;9.90;99.90;;;;;;5123262;27;20032;-73
2023/06/14 02:56:00;;;;;;;15.98;8.07;;;9.90;99.90;;;;;;5077362;28;20413;-73
2023/06/14 02:58:26;;;;;;;15.80;7.93;;;9.90;99.90;;;;;;5070533;28;20058;-73
2023/06/14 03:00:55;;;;;;;15.98;8.50;;;9.90;99.90;;;;;;5076518;28;20040;-73
2023/06/14 03:03:21;;;;;;;20.17;8.68;;;9.80;99.90;;;;;;5089655;28;20024;-74
2023/06/14 03:05:49;;;;;;;14.15;8.60;;;9.80;99.90;;;;;;5091228;28;20026;-74
2023/06/14 03:08:19;;;;;;;18.25;9.25;;;9.80;99.90;;;;;;5092543;28;20036;-75
2023/06/14 03:10:46;;;;;;;15.55;8.20;;;9.80;99.90;;;;;;5106047;27;20059;-74
2023/06/14 03:13:12;;;;;;;15.30;8.55;;;9.70;99.90;;;;;;5071726;28;20071;-74
2023/06/14 03:15:38;;;;;;;14.75;8.07;;;9.60;99.90;;;;;;5076049;28;20052;-73
2023/06/14 03:18:04;;;;;;;15.35;8.60;;;9.50;99.90;;;;;;5110682;27;20358;-74
2023/06/14 03:20:32;;;;;;;17.05;8.98;;;9.50;99.90;;;;;;5087386;28;20039;-74
2023/06/14 03:22:59;;;;;;;16.45;8.48;;;9.50;99.90;;;;;;5089629;28;20028;-75
2023/06/14 03:25:25;;;;;;;14.40;8.40;;;9.50;99.90;;;;;;5089812;28;20035;-74
2023/06/14 03:27:51;;;;;;;14.57;8.68;;;9.40;99.90;;;;;;5088272;28;20369;-74
2023/06/14 03:30:17;;;;;;;14.70;8.38;;;9.50;99.90;;;;;;5080782;28;20122;-73
2023/06/14 03:32:43;;;;;;;13.10;7.88;;;9.40;99.90;;;;;;5075871;28;20400;-74
2023/06/14 03:35:10;;;;;;;13.68;7.93;;;9.30;99.90;;;;;;5086355;28;20499;-74
2023/06/14 03:37:35;;;;;;;13.23;7.75;;;9.40;99.90;;;;;;5089217;28;20024;-74
2023/06/14 03:40:01;;;;;;;14.98;8.32;;;9.50;99.90;;;;;;5087579;28;20143;-73
2023/06/14 03:42:26;;;;;;;14.73;8.45;;;9.60;99.90;;;;;;5089262;28;20126;-74
2023/06/14 03:44:52;;;;;;;12.88;7.97;;;9.60;99.90;;;;;;5087482;28;20498;-74
2023/06/14 03:47:17;;;;;;;15.73;9.10;;;9.70;99.90;;;;;;5079808;28;20051;-73
2023/06/14 03:49:43;;;;;;;16.75;8.70;;;9.60;99.90;;;;;;5101545;28;20028;-74
2023/06/14 03:52:09;;;;;;;18.25;9.18;;;9.50;99.90;;;;;;5075225;28;20040;-76
2023/06/14 03:54:35;;;;;;;15.98;8.93;;;9.40;99.90;;;;;;5070093;28;20123;-74
2023/06/14 03:57:00;;;;;;;15.95;9.05;;;9.40;99.90;;;;;;5082161;28;20051;-74
2023/06/14 03:59:26;;;;;;;18.33;8.80;;;9.30;99.90;;;;;;5077010;28;20043;-73
2023/06/14 04:01:53;;;;;;;18.38;9.23;;;9.40;99.90;;;;;;5077257;28;20519;-71
2023/06/14 04:04:21;;;;;;;15.18;9.32;;;9.40;99.90;;;;;;5092036;28;20033;-69
2023/06/14 04:06:48;;;;;;;15.20;8.68;;;9.40;99.90;;;;;;5107548;28;20539;-71
2023/06/14 04:09:13;;;;;;;14.98;8.65;;;9.50;99.90;;;;;;5081306;28;20028;-75
2023/06/14 04:11:39;;;;;;;18.48;8.18;;;9.50;99.90;;;;;;5088695;28;20013;-75
2023/06/14 04:14:06;;;;;;;13.60;8.38;;;9.50;99.90;;;;;;5081523;28;20498;-77
2023/06/14 04:16:31;;;;;;;15.40;8.77;;;9.50;99.90;;;;;;5079254;28;20777;-76
2023/06/14 04:18:57;;;;;;;16.63;8.95;;;9.60;99.90;;;;;;5087930;28;20059;-76
2023/06/14 04:21:23;;;;;;;15.15;8.55;;;9.70;99.90;;;;;;5088116;28;20031;-76
2023/06/14 04:23:52;;;;;;;21.42;9.30;;;9.80;99.90;;;;;;5090002;28;20033;-79
2023/06/14 04:26:19;;;;;;;17.92;9.80;;;9.90;99.90;;;;;;5078749;28;20029;-75
2023/06/14 04:28:46;;;;;;;14.98;8.52;;;10.00;99.90;;;;;;5068146;28;20024;-75
2023/06/14 04:31:12;;;;;;;13.70;8.75;;;10.20;99.90;;;;;;5070447;28;20028;-75
2023/06/14 04:33:43;;;;;;;15.68;8.57;;;10.30;99.90;;;;;;5084712;28;20047;-74
2023/06/14 04:36:11;;;;;;;15.18;9.32;;;10.50;99.90;;;;;;5088153;28;20036;-74
2023/06/14 04:38:37;;;;;;;17.45;8.82;;;10.60;99.90;;;;;;5085551;28;20036;-72
2023/06/14 04:41:03;;;;;;;16.13;8.93;;;10.80;99.90;;;;;;5103693;28;20051;-75
2023/06/14 04:43:29;;;;;;;18.00;8.77;;;11.10;99.90;;;;;;5071894;28;20059;-74
2023/06/14 04:45:56;;;;;;;17.20;8.63;;;11.30;99.90;;;;;;5081757;28;20052;-74
2023/06/14 04:48:22;;;;;;;14.82;8.38;;;11.20;99.90;;;;;;5082590;28;20036;-77
2023/06/14 04:50:48;;;;;;;15.98;8.63;;;11.30;99.90;;;;;;5082307;28;20035;-72
2023/06/14 04:53:14;;;;;;;15.15;8.60;;;11.50;99.90;;;;;;5086641;28;20036;-73
2023/06/14 04:55:44;;;;;;;13.18;8.38;;;11.60;99.90;;;;;;5088811;28;20021;-73
2023/06/14 04:58:12;;;;;;;14.10;9.10;;;11.70;99.90;;;;;;5091226;28;20033;-69
2023/06/14 05:00:38;;;;;;;16.40;9.27;;;11.90;99.90;;;;;;5078824;28;20138;-72
2023/06/14 05:03:05;;;;;;;17.00;8.70;;;12.00;99.90;;;;;;5083349;28;20118;-76
2023/06/14 05:05:31;;;;;;;16.67;9.73;;;12.20;99.90;;;;;;5088398;28;20392;-76
2023/06/14 05:07:57;;;;;;;17.13;9.38;;;12.30;99.90;;;;;;5082974;28;20056;-73
2023/06/14 05:10:24;;;;;;;14.95;9.27;;;12.50;99.90;;;;;;5081140;28;20330;-70
2023/06/14 05:12:50;;;;;;;15.70;9.23;;;12.50;99.90;;;;;;5085916;28;20119;-73
2023/06/14 05:15:15;;;;;;;15.57;9.65;;;12.60;99.90;;;;;;5079948;28;20131;-72
2023/06/14 05:17:42;;;;;;;15.88;9.75;;;12.80;99.90;;;;;;5086867;28;20060;-72
2023/06/14 05:20:10;;;;;;;15.27;8.20;;;13.00;99.90;;;;;;5080751;28;20031;-71
2023/06/14 05:22:35;;;;;;;14.05;8.95;;;13.20;99.90;;;;;;5084961;28;20040;-74
2023/06/14 05:25:02;;;;;;;19.63;9.85;;;13.20;99.90;;;;;;5075548;28;20029;-73
2023/06/14 05:27:27;;;;;;;17.35;9.30;;;13.20;99.90;;;;;;5074568;28;20036;-75
2023/06/14 05:29:58;;;;;;;15.90;9.48;;;12.90;99.90;;;;;;5081662;28;20051;-79
2023/06/14 05:32:24;;;;;;;;;;;12.90;99.90;;;;;;5078313;28;20055;-72
2023/06/14 05:34:50;;;;;;;17.17;9.20;;;13.10;99.90;;;;;;5087662;28;20327;-75
2023/06/14 05:37:15;;;;;;;18.10;9.63;;;13.20;99.90;;;;;;5081369;28;20495;-75
2023/06/14 05:39:41;;;;;;;21.48;9.57;;;13.40;99.90;;;;;;5104188;28;20044;-74
2023/06/14 05:42:07;;;;;;;15.23;9.65;;;13.60;99.90;;;;;;5071167;28;20033;-72
2023/06/14 05:44:32;;;;;;;15.85;9.15;;;13.70;99.90;;;;;;5071965;28;20024;-72
2023/06/14 05:46:58;;;;;;;18.08;9.60;;;13.90;99.90;;;;;;5075882;28;20119;-72
2023/06/14 05:49:24;;;;;;;18.20;10.02;;;14.00;99.90;;;;;;5091285;28;20020;-72
2023/06/14 05:51:49;;;;;;;16.38;9.23;;;14.00;99.90;;;;;;5088980;28;20024;-75
2023/06/14 05:54:15;;;;;;;12.50;8.60;;;14.10;99.90;;;;;;5086457;28;20032;-73
2023/06/14 05:56:40;;;;;;;19.15;9.55;;;14.40;99.90;;;;;;5092053;28;20398;-76
2023/06/14 05:59:06;;;;;;;13.60;8.55;;;14.60;99.90;;;;;;5089877;28;20028;-76
2023/06/14 06:01:33;;;;;;;17.63;8.70;;;14.90;99.90;;;;;;5079737;28;20023;-74
2023/06/14 06:03:59;;;;;;;12.98;8.82;;;15.10;99.90;;;;;;5092003;28;20020;-74
2023/06/14 06:06:25;;;;;;;13.13;8.70;;;15.40;99.90;;;;;;5090865;28;20026;-75
2023/06/14 06:08:50;;;;;;;13.48;8.57;;;15.60;99.90;;;;;;5087758;28;20036;-73
2023/06/14 06:11:16;;;;;;;16.42;8.75;;;15.70;99.90;;;;;;5082914;28;20478;-72
2023/06/14 06:13:42;;;;;;;18.25;8.45;;;15.90;99.90;;;;;;5091666;28;20044;-76
2023/06/14 06:16:07;;;;;;;14.30;8.10;;;16.10;99.90;;;;;;5123499;27;20033;-77
2023/06/14 06:18:33;;;;;;;14.13;8.27;;;16.20;99.90;;;;;;5091678;28;20064;-75
2023/06/14 06:20:59;;;;;;;23.60;8.82;;;16.30;99.90;;;;;;5089280;28;20035;-73
2023/06/14 06:23:25;;;;;;;13.13;8.27;;;16.50;99.90;;;;;;5083371;28;20039;-73
2023/06/14 06:25:51;;;;;;;15.80;8.38;;;16.50;99.90;;;;;;5090798;28;20030;-73
2023/06/14 06:28:17;;;;;;;16.73;8.38;;;16.50;99.90;;;;;;5123269;27;20434;-72
2023/06/14 06:30:43;;;;;;;11.15;7.53;;;16.60;99.90;;;;;;5124151;27;20035;-72
2023/06/14 06:33:08;;;;;;;18.02;8.60;;;16.60;99.90;;;;;;5090466;28;20115;-75
2023/06/14 06:35:34;;;;;;;15.40;7.85;;;16.60;99.90;;;;;;5112313;27;20495;-72
2023/06/14 06:38:00;;;;;;;12.15;7.68;;;16.90;99.90;;;;;;5084797;28;20032;-72
2023/06/14 06:40:26;;;;;;;11.95;7.82;;;17.00;99.90;;;;;;5090281;28;20250;-75
2023/06/14 06:42:53;;;;;;;14.95;8.00;;;17.20;99.90;;;;;;5088396;28;20035;-74
2023/06/14 06:45:18;;;;;;;13.18;7.45;;;17.30;99.70;;;;;;5116436;27;20029;-74
2023/06/14 06:47:44;;;;;;;13.50;8.43;;;17.50;99.70;;;;;;5074624;28;20063;-74
2023/06/14 06:50:10;;;;;;;18.00;7.40;;;17.60;99.20;;;;;;5090385;28;20024;-73
2023/06/14 06:52:35;;;;;;;13.80;7.70;;;17.60;98.50;;;;;;5073051;28;20044;-74
2023/06/14 06:55:02;;;;;;;12.95;7.50;;;17.60;99.20;;;;;;5089408;28;20043;-74
2023/06/14 06:57:29;;;;;;;17.10;7.97;;;17.70;98.40;;;;;;5072649;28;20028;-73
2023/06/14 06:59:54;;;;;;;13.20;7.75;;;17.70;98.30;;;;;;5085633;28;20043;-74
2023/06/14 07:02:20;;;;;;;14.10;7.07;;;17.80;98.40;;;;;;5087208;28;20024;-74
2023/06/14 07:04:46;;;;;;;14.98;7.65;;;18.00;98.80;;;;;;5090013;28;20036;-74
2023/06/14 07:07:12;;;;;;;11.80;7.22;;;18.20;97.80;;;;;;5078626;28;20036;-75
2023/06/14 07:09:38;;;;;;;12.25;7.07;;;18.20;96.30;;;;;;5070150;28;20377;-73
2023/06/14 07:12:04;;;;;;;14.27;7.55;;;18.30;96.30;;;;;;5080502;28;20039;-75
2023/06/14 07:14:30;;;;;;;15.30;7.07;;;18.40;96.40;;;;;;5080810;28;20056;-70
2023/06/14 07:16:56;;;;;;;11.57;6.95;;;18.50;95.50;;;;;;5082758;28;20464;-71
2023/06/14 07:19:21;;;;;;;14.13;7.00;;;18.50;95.50;;;;;;5087133;28;20570;-74
2023/06/14 07:21:47;;;;;;;14.50;6.75;;;18.70;95.50;;;;;;5089788;28;20034;-74
2023/06/14 07:24:13;;;;;;;11.93;7.15;;;18.80;94.80;;;;;;5081869;28;20376;-70
2023/06/14 07:26:39;;;;;;;17.52;6.93;;;18.70;94.40;;;;;;5085551;28;20028;-74
2023/06/14 07:29:05;;;;;;;12.38;6.40;;;18.80;95.00;;;;;;5089998;28;20250;-76
2023/06/14 07:31:31;;;;;;;13.95;7.10;;;19.10;95.70;;;;;;5072485;28;20364;-71
2023/06/14 07:33:56;;;;;;;10.93;6.75;;;19.40;93.70;;;;;;5088460;28;20043;-73
2023/06/14 07:36:23;;;;;;;14.98;7.43;;;19.50;93.20;;;;;;5090637;28;20096;-76
2023/06/14 07:38:48;;;;;;;10.18;6.63;;;19.60;93.00;;;;;;5071485;28;20526;-74
2023/06/14 07:41:14;;;;;;;10.25;6.75;;;19.70;92.50;;;;;;5068670;28;20033;-76
2023/06/14 07:43:39;;;;;;;14.38;6.25;;;19.70;90.70;;;;;;5071320;28;20089;-74
2023/06/14 07:46:05;;;;;;;16.05;7.28;;;19.60;90.90;;;;;;5073849;28;20053;-75
2023/06/14 07:48:31;;;;;;;12.48;6.88;;;19.60;90.60;;;;;;5085419;28;20066;-77
2023/06/14 07:50:56;;;;;;;12.35;6.60;;;19.50;90.10;;;;;;5089947;28;20031;-74
2023/06/14 07:53:22;;;;;;;10.73;6.78;;;19.60;91.00;;;;;;5113949;27;20042;-74
2023/06/14 07:55:48;;;;;;;10.02;6.45;;;19.60;90.70;;;;;;5070044;28;20032;-71
2023/06/14 07:58:14;;;;;;;9.93;6.80;;;19.60;90.80;;;;;;5072778;28;20118;-76
2023/06/14 08:00:39;;;;;;;14.32;6.65;;;19.90;89.60;;;;;;5089008;28;20028;-74
2023/06/14 08:03:08;;;;;;;13.20;6.63;;;20.10;89.20;;;;;;5082531;28;20090;-70
2023/06/14 08:05:34;;;;;;;9.65;6.85;;;20.30;88.10;;;;;;5079233;28;20032;-70
2023/06/14 08:08:03;;;;;;;11.00;7.20;;;20.50;88.80;;;;;;5087895;28;20429;-72
2023/06/14 08:10:29;;;;;;;8.80;6.28;;;20.50;86.90;;;;;;5072265;28;20032;-75
2023/06/14 08:12:54;;;;;;;10.45;7.05;;;20.60;87.80;;;;;;5078709;28;20031;-73
2023/06/14 08:15:20;;;;;;;12.82;6.82;;;20.70;85.60;;;;;;5087413;28;20817;-82
2023/06/14 08:17:46;;;;;;;12.38;7.45;;;20.80;85.50;;;;;;5085284;28;20140;-78
2023/06/14 08:20:16;;;;;;;10.95;6.68;;;20.60;84.00;;;;;;5077280;28;20062;-77
2023/06/14 08:22:42;;;;;;;12.55;6.88;;;20.40;85.60;;;;;;5088381;28;20047;-74
2023/06/14 08:25:08;;;;;;;9.60;6.63;;;20.50;85.70;;;;;;5122096;27;20380;-75
2023/06/14 08:27:35;;;;;;;12.43;7.35;;;20.60;86.00;;;;;;5069799;28;20075;-73
2023/06/14 08:30:02;;;;;;;12.35;7.10;;;20.70;83.90;;;;;;5083307;28;20543;-72
2023/06/14 08:32:28;;;;;;;15.30;6.68;;;20.90;84.30;;;;;;5076889;28;20114;-72
2023/06/14 08:34:53;;;;;;;9.77;6.22;;;20.80;84.60;;;;;;5088942;28;20591;-79
2023/06/14 08:37:22;;;;;;;11.18;6.90;;;20.90;83.40;;;;;;5110875;27;20116;-75
2023/06/14 08:39:48;;;;;;;19.00;6.30;;;21.10;84.20;;;;;;5081470;28;20031;-76
2023/06/14 08:42:15;;;;;;;14.52;6.50;;;21.40;83.60;;;;;;5080717;28;20510;-79
2023/06/14 08:44:41;;;;;;;15.05;7.30;;;21.70;81.30;;;;;;5079974;28;20048;-75
2023/06/14 08:47:11;;;;;;;15.05;6.70;;;21.70;80.70;;;;;;5120326;27;20079;-74
2023/06/14 08:49:38;;;;;;;10.85;6.85;;;21.60;82.40;;;;;;5073480;28;20035;-75
2023/06/14 08:52:08;;;;;;;18.55;6.78;;;21.70;82.20;;;;;;5117807;27;20032;-78
2023/06/14 08:54:36;;;;;;;9.87;6.30;;;21.80;81.00;;;;;;5110382;27;20036;-76
2023/06/14 08:57:06;;;;;;;10.27;6.10;;;21.80;78.60;;;;;;5073454;28;20036;-78
2023/06/14 08:59:38;;;;;;;9.18;6.32;;;22.10;83.60;;;;;;5077675;28;20138;-73
2023/06/14 09:02:06;;;;;;;9.90;6.47;;;22.30;75.40;;;;;;5085902;28;20043;-74
2023/06/14 09:04:33;;;;;;;12.98;6.20;;;21.70;77.70;;;;;;5084194;28;20032;-77
2023/06/14 09:06:59;;;;;;;11.48;6.72;;;21.80;77.60;;;;;;5073553;28;20036;-75
2023/06/14 09:09:25;;;;;;;9.25;5.85;;;22.10;78.10;;;;;;5086941;28;20080;-77
2023/06/14 09:11:51;;;;;;;8.73;6.10;;;22.30;77.80;;;;;;5074863;28;20480;-76
2023/06/14 09:14:23;;;;;;;10.85;6.70;;;22.20;77.40;;;;;;5084368;28;20554;-78
2023/06/14 09:16:53;;;;;;;11.77;6.30;;;22.40;77.60;;;;;;5088111;28;20024;-75
2023/06/14 09:19:25;;;;;;;8.73;6.00;;;22.90;81.30;;;;;;5079276;28;20033;-78
2023/06/14 09:21:55;;;;;;;10.30;6.70;;;23.20;77.80;;;;;;5078719;28;20024;-77
2023/06/14 09:24:21;;;;;;;;;;;23.30;74.20;;;;;;5079284;28;20111;-77
2023/06/14 09:26:51;;;;;;;9.45;6.32;;;23.30;72.10;;;;;;5070872;28;20003;-80
2023/06/14 09:29:20;;;;;;;14.38;6.03;;;23.30;74.50;;;;;;5074884;28;20036;-82
2023/06/14 09:31:47;;;;;;;12.88;6.60;;;23.60;74.50;;;;;;5086474;28;20036;-73
2023/06/14 09:34:18;;;;;;;10.00;5.97;;;23.90;70.50;;;;;;5075723;28;20071;-78
2023/06/14 09:36:43;;;;;;;11.55;5.75;;;23.90;73.20;;;;;;5079979;28;20465;-77
2023/06/14 09:39:17;;;;;;;8.50;6.22;;;23.90;72.90;;;;;;5074507;28;20037;-78
2023/06/14 09:41:43;;;;;;;9.60;5.95;;;23.90;68.90;;;;;;5080012;28;20370;-83
2023/06/14 09:44:12;;;;;;;11.85;5.72;;;23.90;69.30;;;;;;5086788;28;20035;-81
2023/06/14 09:46:38;;;;;;;9.05;5.97;;;24.00;68.30;;;;;;5115895;28;20039;-81
2023/06/14 09:49:05;;;;;;;18.27;6.32;;;23.70;69.60;;;;;;5086799;28;20039;-77
2023/06/14 09:51:31;;;;;;;8.95;5.72;;;23.70;70.20;;;;;;5118713;28;20054;-80
2023/06/14 09:54:04;;;;;;;13.75;5.82;;;23.90;70.20;;;;;;5086981;28;20043;-80
2023/06/14 09:56:37;;;;;;;8.68;5.55;;;24.20;68.80;;;;;;5067444;28;20438;-78
2023/06/14 09:59:09;;;;;;;9.38;5.70;;;24.00;64.20;;;;;;5084638;28;20052;-78
2023/06/14 10:01:41;;;;;;;11.52;6.25;;;23.80;65.40;;;;;;5108046;28;20093;-80
2023/06/14 10:04:07;;;;;;;10.27;6.10;;;23.90;66.50;;;;;;5083254;28;20706;-82
2023/06/14 10:06:37;;;;;;;10.15;6.15;;;23.90;65.60;;;;;;5085369;28;20032;-77
2023/06/14 10:09:07;;;;;;;12.57;6.05;;;24.00;63.50;;;;;;5082879;28;20055;-76
2023/06/14 10:11:35;;;;;;;18.02;6.47;;;24.20;62.00;;;;;;5076448;28;20116;-77
2023/06/14 10:14:02;;;;;;;14.45;6.05;;;24.00;61.40;;;;;;5077224;28;20089;-78
2023/06/14 10:17:06;;;;;;;8.63;5.82;;;23.30;62.40;;;;;;5069105;28;20032;-76
2023/06/14 10:19:54;;;;;;;9.70;6.53;;;22.90;60.60;;;;;;5038559;28;20105;-78
2023/06/14 10:22:44;;;;;;;10.95;6.20;;;22.80;64.00;;;;;;5071476;28;20122;-77
2023/06/14 10:25:13;;;;;;;8.93;6.05;;;23.20;66.10;;;;;;5088245;28;20055;-79
2023/06/14 10:27:47;;;;;;;9.65;5.65;;;23.80;65.90;;;;;;5081739;28;20033;-77
2023/06/14 10:30:15;;;;;;;8.77;6.13;;;24.30;61.20;;;;;;5080201;28;20016;-79
2023/06/14 10:33:04;;;;;;;11.35;6.25;;;24.60;59.40;;;;;;5082659;28;20457;-78
2023/06/14 10:35:30;;;;;;;9.38;5.57;;;24.30;57.60;;;;;;5086514;28;20056;-80
2023/06/14 10:38:09;;;;;;;12.05;6.22;;;24.20;60.70;;;;;;5070765;28;20032;-79
2023/06/14 10:40:36;;;;;;;10.10;5.63;;;24.20;57.40;;;;;;5073519;28;20043;-80
2023/06/14 10:43:22;;;;;;;8.98;5.45;;;24.20;56.20;;;;;;5084998;28;20024;-78
2023/06/14 10:46:12;;;;;;;12.50;5.30;;;24.30;58.50;;;;;;5089928;28;20052;-76
2023/06/14 10:48:45;;;;;;;10.35;5.93;;;24.60;59.70;;;;;;5069862;28;20263;-74
2023/06/14 10:51:20;;;;;;;10.07;6.05;;;25.00;57.90;;;;;;5069778;28;20036;-76
2023/06/14 10:53:48;;;;;;;8.02;5.65;;;25.40;59.20;;;;;;5101469;28;20086;-75
2023/06/14 10:56:33;;;;;;;13.38;6.38;;;25.70;58.90;;;;;;5086938;28;22057;-75
2023/06/14 10:58:58;;;;;;;9.63;5.35;;;25.40;56.60;;;;;;5089846;28;20028;-74
2023/06/14 11:01:41;;;;;;;11.63;5.97;;;25.30;56.00;;;;;;5089243;28;20038;-78
2023/06/14 11:04:13;;;;;;;13.57;5.78;;;25.50;56.00;;;;;;5070350;28;20036;-80
2023/06/14 11:07:12;;;;;;;10.02;5.95;;;25.60;53.90;;;;;;5072819;28;20034;-75
2023/06/14 11:09:59;;;;;;;11.10;5.85;;;25.50;53.80;;;;;;5088696;28;20480;-78
2023/06/14 11:12:28;;;;;;;12.90;5.72;;;25.30;53.40;;;;;;5083663;28;20039;-80
2023/06/14 11:14:56;;;;;;;9.25;5.78;;;25.40;55.50;;;;;;5089280;28;20473;-80
2023/06/14 11:17:22;;;;;;;9.63;5.53;;;25.50;58.00;;;;;;5089209;28;20036;-79
2023/06/14 11:19:47;;;;;;;7.70;5.20;;;26.00;56.40;;;;;;5074970;28;20020;-76
2023/06/14 11:22:14;;;;;;;14.90;5.55;;;26.30;57.60;;;;;;5083865;28;20724;-82
2023/06/14 11:24:40;;;;;;;11.05;5.78;;;26.30;53.30;;;;;;5087133;28;20102;-78
2023/06/14 11:27:09;;;;;;;11.30;5.45;;;26.50;53.20;;;;;;5088103;28;20776;-78
2023/06/14 11:29:34;;;;;;;8.68;5.05;;;25.90;51.80;;;;;;5071007;28;20044;-83
2023/06/14 11:32:06;;;;;;;9.88;5.53;;;25.70;52.40;;;;;;5069417;28;20082;-81
2023/06/14 11:34:32;;;;;;;10.00;5.25;;;25.70;54.80;;;;;;5075929;28;20548;-81
2023/06/14 11:36:58;;;;;;;9.27;4.55;;;25.90;52.20;;;;;;5078791;28;20089;-77
2023/06/14 11:39:27;;;;;;;10.70;5.40;;;26.20;51.60;;;;;;5081358;28;20052;-77
2023/06/14 11:41:55;;;;;;;7.93;5.15;;;26.00;51.20;;;;;;5086718;28;20024;-79
2023/06/14 11:44:20;;;;;;;9.95;5.25;;;26.20;55.00;;;;;;5083244;28;20032;-76
2023/06/14 11:46:51;;;;;;;9.13;5.13;;;26.70;50.00;;;;;;5100797;28;20053;-72
2023/06/14 11:49:16;;;;;;;10.02;5.03;;;26.90;52.60;;;;;;5079851;28;20040;-78
2023/06/14 11:51:46;;;;;;;8.15;5.25;;;27.40;52.60;;;;;;5084778;28;20097;-73
2023/06/14 11:54:12;;;;;;;10.50;5.30;;;27.30;49.20;;;;;;5087459;28;20043;-70
2023/06/14 11:56:38;;;;;;;12.07;5.28;;;27.40;50.60;;;;;;5070892;28;20044;-72
2023/06/14 11:59:05;;;;;;;9.63;5.50;;;27.40;49.40;;;;;;5076256;28;20039;-74
2023/06/14 12:01:31;;;;;;;9.45;5.38;;;27.40;51.10;;;;;;5103509;27;20028;-77
2023/06/14 12:03:59;;;;;;;8.77;5.35;;;27.70;54.70;;;;;;5088857;28;20047;-79
2023/06/14 12:06:32;;;;;;;8.80;5.28;;;28.00;53.10;;;;;;5089085;28;20103;-77
2023/06/14 12:08:58;;;;;;;10.75;5.40;;;28.40;50.90;;;;;;5088915;28;20027;-78
2023/06/14 12:11:33;;;;;;;9.25;5.22;;;28.60;51.90;;;;;;5071742;28;20099;-74
2023/06/14 12:13:58;;;;;;;9.98;6.05;;;28.60;52.50;;;;;;5088108;28;20039;-76
2023/06/14 12:16:38;;;;;;;10.02;5.65;;;28.40;50.70;;;;;;5074604;28;20094;-79
2023/06/14 12:19:14;;;;;;;8.50;5.23;;;28.60;51.90;;;;;;5079432;28;20477;-75
2023/06/14 12:21:41;;;;;;;7.75;5.65;;;28.40;49.90;;;;;;5067477;28;20051;-75
2023/06/14 12:24:08;;;;;;;7.50;5.10;;;28.50;51.00;;;;;;5072345;28;20095;-76
2023/06/14 12:26:38;;;;;;;7.30;5.07;;;28.70;50.30;;;;;;5071244;28;20024;-74
2023/06/14 12:29:06;;;;;;;8.52;5.32;;;28.30;50.00;;;;;;5087528;28;20042;-78
2023/06/14 12:31:32;;;;;;;8.05;5.53;;;28.30;48.80;;;;;;5071399;28;20112;-83
2023/06/14 12:33:59;;;;;;;8.85;5.13;;;28.30;48.80;;;;;;5083472;28;20107;-78
2023/06/14 12:36:25;;;;;;;6.68;4.95;;;28.20;48.90;;;;;;5104964;27;20028;-76
2023/06/14 12:38:53;;;;;;;10.05;5.20;;;28.10;50.80;;;;;;5082422;28;20591;-80
2023/06/14 12:41:22;;;;;;;9.02;5.30;;;27.80;48.50;;;;;;5068180;28;20055;-81
2023/06/14 12:43:48;;;;;;;8.30;5.45;;;27.40;49.80;;;;;;5079696;28;20689;-82